EWG9A EDDS-EDDH
Flight info
| Callsign | EWG9A |
|---|---|
| Flight time | 0h 57m |
| Altitude | 37000 |
| Route | OKIBA4H OKIBA N851 RIMKI Z99 LOHRE DCT MASEK DCT ELNAT/N0425F360 P605 NOLGO NOLGO3P |
| Aircraft | A320/M-SDE3FGHIRWY/LB1 |
Departure
| Time | 2026-05-04 18:57 |
|---|---|
| Airport | Stuttgart Airport (EDDS) |
Arrival
| Time | 2026-05-04 19:54 |
|---|---|
| Airport | Hamburg Helmut Schmidt Airport (EDDH) |
| Time | Latitude | Longitude | Altitude | Speed | Heading |
|---|---|---|---|---|---|
| 2026-05-04 18:19 | 48.68884 | 9.19359 | 1316 ft | 0 kts | 344° |
| 2026-05-04 18:20 | 48.68867 | 9.19289 | 1316 ft | 0 kts | 344° |
| 2026-05-04 18:43 | 48.68849 | 9.19297 | 1315 ft | 4 kts | 344° |
| 2026-05-04 18:43 | 48.68823 | 9.19306 | 1315 ft | 4 kts | 359° |
| 2026-05-04 18:44 | 48.68798 | 9.19300 | 1315 ft | 4 kts | 38° |
| 2026-05-04 18:44 | 48.68788 | 9.19282 | 1315 ft | 2 kts | 73° |
| 2026-05-04 18:44 | 48.68786 | 9.19273 | 1315 ft | 0 kts | 74° |
| 2026-05-04 18:49 | 48.68792 | 9.19301 | 1314 ft | 7 kts | 73° |
| 2026-05-04 18:49 | 48.68809 | 9.19386 | 1313 ft | 10 kts | 73° |
| 2026-05-04 18:49 | 48.68831 | 9.19507 | 1311 ft | 13 kts | 75° |
| 2026-05-04 18:50 | 48.68858 | 9.19656 | 1309 ft | 17 kts | 73° |
| 2026-05-04 18:50 | 48.68901 | 9.19844 | 1304 ft | 21 kts | 64° |
| 2026-05-04 18:50 | 48.68983 | 9.20034 | 1302 ft | 22 kts | 60° |
| 2026-05-04 18:50 | 48.69028 | 9.20255 | 1296 ft | 22 kts | 69° |
| 2026-05-04 18:51 | 48.69061 | 9.20467 | 1288 ft | 18 kts | 105° |
| 2026-05-04 18:51 | 48.68990 | 9.20580 | 1282 ft | 16 kts | 133° |
| 2026-05-04 18:51 | 48.68974 | 9.20751 | 1277 ft | 18 kts | 76° |
| 2026-05-04 18:51 | 48.69011 | 9.20943 | 1272 ft | 20 kts | 72° |
| 2026-05-04 18:52 | 48.69054 | 9.21164 | 1269 ft | 23 kts | 74° |
| 2026-05-04 18:52 | 48.69100 | 9.21411 | 1263 ft | 26 kts | 75° |
| 2026-05-04 18:52 | 48.69152 | 9.21683 | 1258 ft | 28 kts | 74° |
| 2026-05-04 18:52 | 48.69209 | 9.21985 | 1257 ft | 32 kts | 73° |
| 2026-05-04 18:53 | 48.69268 | 9.22292 | 1247 ft | 30 kts | 74° |
| 2026-05-04 18:53 | 48.69328 | 9.22615 | 1234 ft | 33 kts | 74° |
| 2026-05-04 18:53 | 48.69396 | 9.22966 | 1227 ft | 36 kts | 74° |
| 2026-05-04 18:53 | 48.69464 | 9.23327 | 1229 ft | 35 kts | 74° |
| 2026-05-04 18:54 | 48.69524 | 9.23652 | 1262 ft | 28 kts | 74° |
| 2026-05-04 18:54 | 48.69571 | 9.23901 | 1273 ft | 22 kts | 73° |
| 2026-05-04 18:54 | 48.69609 | 9.24124 | 1270 ft | 23 kts | 89° |
| 2026-05-04 18:54 | 48.69530 | 9.24304 | 1255 ft | 17 kts | 160° |
| 2026-05-04 18:55 | 48.69404 | 9.24319 | 1191 ft | 14 kts | 206° |
| 2026-05-04 18:55 | 48.69377 | 9.24262 | 1192 ft | 0 kts | 254° |
| 2026-05-04 18:56 | 48.69370 | 9.24218 | 1193 ft | 24 kts | 255° |
| 2026-05-04 18:56 | 48.69251 | 9.23579 | 1207 ft | 98 kts | 254° |
| 2026-05-04 18:56 | 48.69001 | 9.22303 | 1243 ft | 152 kts | 253° |
| 2026-05-04 18:56 | 48.68696 | 9.20681 | 1677 ft | 165 kts | 256° |
| 2026-05-04 18:57 | 48.68362 | 9.18980 | 2422 ft | 169 kts | 256° |
| 2026-05-04 18:57 | 48.68033 | 9.17276 | 3130 ft | 171 kts | 256° |
| 2026-05-04 18:57 | 48.67680 | 9.15439 | 3518 ft | 193 kts | 255° |
| 2026-05-04 18:57 | 48.67283 | 9.13395 | 3799 ft | 217 kts | 255° |
| 2026-05-04 18:58 | 48.66975 | 9.11051 | 4247 ft | 238 kts | 275° |
| 2026-05-04 18:58 | 48.67511 | 9.08704 | 4823 ft | 250 kts | 301° |
| 2026-05-04 18:58 | 48.68504 | 9.06819 | 4963 ft | 251 kts | 323° |
| 2026-05-04 18:58 | 48.70065 | 9.05838 | 5012 ft | 264 kts | 349° |
| 2026-05-04 18:59 | 48.71787 | 9.05248 | 5009 ft | 271 kts | 346° |
| 2026-05-04 18:59 | 48.73623 | 9.04534 | 5008 ft | 273 kts | 351° |
| 2026-05-04 18:59 | 48.75508 | 9.04505 | 5010 ft | 272 kts | 9° |
| 2026-05-04 18:59 | 48.77292 | 9.05401 | 5010 ft | 271 kts | 29° |
| 2026-05-04 19:00 | 48.78776 | 9.07147 | 5034 ft | 274 kts | 49° |
| 2026-05-04 19:00 | 48.79535 | 9.08707 | 5427 ft | 279 kts | 57° |
| 2026-05-04 19:00 | 48.80640 | 9.11127 | 6501 ft | 280 kts | 56° |
| 2026-05-04 19:00 | 48.81773 | 9.13553 | 7411 ft | 284 kts | 56° |
| 2026-05-04 19:01 | 48.82931 | 9.16018 | 8297 ft | 290 kts | 57° |
| 2026-05-04 19:01 | 48.84113 | 9.18538 | 9184 ft | 295 kts | 57° |
| 2026-05-04 19:01 | 48.85707 | 9.21956 | 10224 ft | 308 kts | 57° |
| 2026-05-04 19:01 | 48.86532 | 9.23736 | 10428 ft | 323 kts | 57° |
| 2026-05-04 19:02 | 48.87830 | 9.26540 | 10910 ft | 338 kts | 57° |
| 2026-05-04 19:02 | 48.89315 | 9.29337 | 11675 ft | 346 kts | 45° |
| 2026-05-04 19:02 | 48.91235 | 9.31576 | 12479 ft | 351 kts | 30° |
| 2026-05-04 19:02 | 48.93490 | 9.33047 | 13294 ft | 356 kts | 15° |
| 2026-05-04 19:03 | 48.95935 | 9.33619 | 14050 ft | 358 kts | 0° |
| 2026-05-04 19:03 | 48.98437 | 9.33466 | 14735 ft | 362 kts | 355° |
| 2026-05-04 19:03 | 49.00962 | 9.33256 | 15409 ft | 366 kts | 355° |
| 2026-05-04 19:03 | 49.03523 | 9.33045 | 16085 ft | 370 kts | 355° |
| 2026-05-04 19:04 | 49.06115 | 9.32835 | 16755 ft | 374 kts | 355° |
| 2026-05-04 19:04 | 49.08728 | 9.32626 | 17406 ft | 379 kts | 355° |
| 2026-05-04 19:04 | 49.11347 | 9.32416 | 18056 ft | 384 kts | 355° |
| 2026-05-04 19:04 | 49.14029 | 9.32203 | 18645 ft | 388 kts | 355° |
| 2026-05-04 19:05 | 49.16741 | 9.31991 | 19253 ft | 391 kts | 355° |
| 2026-05-04 19:05 | 49.19458 | 9.31777 | 19829 ft | 394 kts | 355° |
| 2026-05-04 19:05 | 49.22214 | 9.31557 | 20398 ft | 398 kts | 355° |
| 2026-05-04 19:05 | 49.24996 | 9.31338 | 20973 ft | 401 kts | 355° |
| 2026-05-04 19:06 | 49.27796 | 9.31119 | 21522 ft | 405 kts | 355° |
| 2026-05-04 19:06 | 49.30632 | 9.30896 | 22078 ft | 408 kts | 355° |
| 2026-05-04 19:06 | 49.33486 | 9.30675 | 22612 ft | 412 kts | 354° |
| 2026-05-04 19:06 | 49.36365 | 9.30665 | 23133 ft | 417 kts | 2° |
| 2026-05-04 19:07 | 49.39266 | 9.31086 | 23632 ft | 422 kts | 3° |
| 2026-05-04 19:07 | 49.42195 | 9.31523 | 24058 ft | 425 kts | 3° |
| 2026-05-04 19:07 | 49.45148 | 9.31963 | 24498 ft | 428 kts | 3° |
| 2026-05-04 19:07 | 49.48097 | 9.32402 | 24926 ft | 431 kts | 3° |
| 2026-05-04 19:08 | 49.51085 | 9.32842 | 25360 ft | 433 kts | 3° |
| 2026-05-04 19:08 | 49.53992 | 9.33268 | 25772 ft | 436 kts | 3° |
| 2026-05-04 19:08 | 49.57009 | 9.33715 | 25943 ft | 437 kts | 3° |
| 2026-05-04 19:08 | 49.60041 | 9.34172 | 25986 ft | 437 kts | 3° |
| 2026-05-04 19:09 | 49.63060 | 9.34629 | 25976 ft | 436 kts | 3° |
| 2026-05-04 19:09 | 49.66055 | 9.35080 | 25978 ft | 436 kts | 3° |
| 2026-05-04 19:09 | 49.69053 | 9.35530 | 25977 ft | 436 kts | 3° |
| 2026-05-04 19:09 | 49.72074 | 9.35982 | 25977 ft | 436 kts | 3° |
| 2026-05-04 19:10 | 49.75085 | 9.36533 | 26038 ft | 439 kts | 9° |
| 2026-05-04 19:10 | 49.78068 | 9.37621 | 26479 ft | 442 kts | 12° |
| 2026-05-04 19:10 | 49.81027 | 9.38759 | 26927 ft | 445 kts | 12° |
| 2026-05-04 19:10 | 49.84037 | 9.39912 | 27359 ft | 446 kts | 12° |
| 2026-05-04 19:11 | 49.87060 | 9.41061 | 27789 ft | 449 kts | 12° |
| 2026-05-04 19:11 | 49.90103 | 9.42220 | 28196 ft | 451 kts | 12° |
| 2026-05-04 19:11 | 49.93161 | 9.43390 | 28596 ft | 454 kts | 12° |
| 2026-05-04 19:11 | 49.96237 | 9.44572 | 28974 ft | 456 kts | 12° |
| 2026-05-04 19:12 | 49.99289 | 9.45956 | 29338 ft | 461 kts | 21° |
| 2026-05-04 19:12 | 50.05155 | 9.50182 | 30038 ft | 468 kts | 24° |
| 2026-05-04 19:12 | 50.08106 | 9.52371 | 30337 ft | 471 kts | 24° |
| 2026-05-04 19:13 | 50.11077 | 9.54580 | 30630 ft | 473 kts | 24° |
| 2026-05-04 19:13 | 50.14052 | 9.56793 | 30917 ft | 475 kts | 24° |
| 2026-05-04 19:13 | 50.17045 | 9.59027 | 31214 ft | 478 kts | 24° |
| 2026-05-04 19:13 | 50.20055 | 9.61276 | 31506 ft | 480 kts | 24° |
| 2026-05-04 19:14 | 50.23065 | 9.63530 | 31860 ft | 480 kts | 24° |
| 2026-05-04 19:14 | 50.26075 | 9.65791 | 32277 ft | 479 kts | 24° |
| 2026-05-04 19:14 | 50.29083 | 9.68058 | 32674 ft | 479 kts | 24° |
| 2026-05-04 19:14 | 50.32078 | 9.70321 | 33079 ft | 478 kts | 24° |
| 2026-05-04 19:15 | 50.35072 | 9.72590 | 33482 ft | 477 kts | 24° |
| 2026-05-04 19:15 | 50.38050 | 9.74860 | 33947 ft | 475 kts | 24° |
| 2026-05-04 19:15 | 50.41016 | 9.77134 | 34349 ft | 473 kts | 24° |
| 2026-05-04 19:15 | 50.43971 | 9.79400 | 34703 ft | 472 kts | 24° |
| 2026-05-04 19:16 | 50.46926 | 9.81667 | 35032 ft | 472 kts | 24° |
| 2026-05-04 19:16 | 50.49869 | 9.83935 | 35356 ft | 471 kts | 24° |
| 2026-05-04 19:16 | 50.52804 | 9.86202 | 35666 ft | 471 kts | 24° |
| 2026-05-04 19:16 | 50.55707 | 9.88445 | 35916 ft | 471 kts | 24° |
| 2026-05-04 19:17 | 50.58653 | 9.90725 | 35982 ft | 471 kts | 24° |
| 2026-05-04 19:17 | 50.64531 | 9.95280 | 35982 ft | 470 kts | 24° |
| 2026-05-04 19:18 | 50.70381 | 9.99824 | 35983 ft | 470 kts | 24° |
| 2026-05-04 19:18 | 50.76218 | 10.04363 | 35984 ft | 470 kts | 24° |
| 2026-05-04 19:19 | 50.82014 | 10.08825 | 35987 ft | 467 kts | 20° |
| 2026-05-04 19:19 | 50.85098 | 10.10245 | 35994 ft | 458 kts | 5° |
| 2026-05-04 19:19 | 50.88234 | 10.10417 | 35993 ft | 448 kts | 349° |
| 2026-05-04 19:19 | 50.91241 | 10.09344 | 36005 ft | 438 kts | 334° |
| 2026-05-04 19:20 | 50.93913 | 10.07179 | 35999 ft | 428 kts | 320° |
| 2026-05-04 19:20 | 50.98322 | 10.01081 | 35972 ft | 422 kts | 313° |
| 2026-05-04 19:21 | 51.02679 | 9.94818 | 35983 ft | 422 kts | 313° |
| 2026-05-04 19:21 | 51.07107 | 9.88648 | 35971 ft | 428 kts | 321° |
| 2026-05-04 19:21 | 51.09792 | 9.86502 | 35969 ft | 438 kts | 338° |
| 2026-05-04 19:22 | 51.12819 | 9.85685 | 35970 ft | 447 kts | 356° |
| 2026-05-04 19:22 | 51.19065 | 9.86351 | 35975 ft | 451 kts | 0° |
| 2026-05-04 19:23 | 51.25323 | 9.87131 | 35971 ft | 451 kts | 0° |
| 2026-05-04 19:23 | 51.31555 | 9.87881 | 35968 ft | 452 kts | 0° |
| 2026-05-04 19:24 | 51.37825 | 9.88620 | 35970 ft | 452 kts | 0° |
| 2026-05-04 19:24 | 51.44092 | 9.89367 | 35988 ft | 452 kts | 0° |
| 2026-05-04 19:25 | 51.50355 | 9.90127 | 35986 ft | 451 kts | 0° |
| 2026-05-04 19:25 | 51.56623 | 9.90878 | 35984 ft | 451 kts | 360° |
| 2026-05-04 19:26 | 51.62761 | 9.91611 | 35994 ft | 451 kts | 0° |
| 2026-05-04 19:26 | 51.68965 | 9.92362 | 35992 ft | 451 kts | 360° |
| 2026-05-04 19:27 | 51.75217 | 9.93117 | 35987 ft | 450 kts | 360° |
| 2026-05-04 19:27 | 51.81469 | 9.93871 | 35984 ft | 450 kts | 360° |
| 2026-05-04 19:28 | 51.87723 | 9.94631 | 35993 ft | 450 kts | 360° |
| 2026-05-04 19:28 | 51.93967 | 9.95401 | 35988 ft | 450 kts | 360° |
| 2026-05-04 19:29 | 52.00214 | 9.96175 | 35973 ft | 451 kts | 360° |
| 2026-05-04 19:29 | 52.06482 | 9.96942 | 35957 ft | 453 kts | 360° |
| 2026-05-04 19:30 | 52.12785 | 9.97701 | 35968 ft | 455 kts | 360° |
| 2026-05-04 19:30 | 52.19019 | 9.98461 | 35764 ft | 457 kts | 360° |
| 2026-05-04 19:30 | 52.22053 | 9.98844 | 35321 ft | 453 kts | 360° |
| 2026-05-04 19:31 | 52.25189 | 9.99244 | 34856 ft | 448 kts | 359° |
| 2026-05-04 19:31 | 52.28287 | 9.99637 | 34391 ft | 444 kts | 359° |
| 2026-05-04 19:31 | 52.31364 | 10.00023 | 33917 ft | 441 kts | 359° |
| 2026-05-04 19:31 | 52.34414 | 10.00402 | 33395 ft | 438 kts | 359° |
| 2026-05-04 19:32 | 52.37445 | 10.00781 | 32866 ft | 435 kts | 359° |
| 2026-05-04 19:32 | 52.40452 | 10.01156 | 32359 ft | 431 kts | 359° |
| 2026-05-04 19:32 | 52.43433 | 10.01528 | 31880 ft | 428 kts | 359° |
| 2026-05-04 19:32 | 52.46389 | 10.01898 | 31387 ft | 425 kts | 359° |
| 2026-05-04 19:33 | 52.49284 | 10.02266 | 30912 ft | 422 kts | 359° |
| 2026-05-04 19:33 | 52.52232 | 10.02642 | 30435 ft | 419 kts | 359° |
| 2026-05-04 19:33 | 52.55127 | 10.03010 | 29958 ft | 415 kts | 359° |
| 2026-05-04 19:33 | 52.57995 | 10.03368 | 29439 ft | 412 kts | 359° |
| 2026-05-04 19:34 | 52.60850 | 10.03718 | 28914 ft | 410 kts | 359° |
| 2026-05-04 19:34 | 52.63646 | 10.04063 | 28391 ft | 407 kts | 359° |
| 2026-05-04 19:34 | 52.66462 | 10.04416 | 27880 ft | 405 kts | 359° |
| 2026-05-04 19:34 | 52.69262 | 10.04773 | 27386 ft | 402 kts | 359° |
| 2026-05-04 19:35 | 52.72042 | 10.05127 | 26903 ft | 399 kts | 359° |
| 2026-05-04 19:35 | 52.74824 | 10.05482 | 26428 ft | 396 kts | 360° |
| 2026-05-04 19:35 | 52.77526 | 10.05828 | 25974 ft | 393 kts | 360° |
| 2026-05-04 19:35 | 52.80246 | 10.06173 | 25523 ft | 390 kts | 360° |
| 2026-05-04 19:36 | 52.82944 | 10.06517 | 25115 ft | 387 kts | 0° |
| 2026-05-04 19:36 | 52.85625 | 10.06858 | 24948 ft | 386 kts | 0° |
| 2026-05-04 19:36 | 52.88326 | 10.07203 | 24978 ft | 387 kts | 0° |
| 2026-05-04 19:36 | 52.90983 | 10.07542 | 24971 ft | 387 kts | 0° |
| 2026-05-04 19:37 | 52.93672 | 10.07886 | 24974 ft | 387 kts | 0° |
| 2026-05-04 19:37 | 52.96367 | 10.08227 | 24492 ft | 391 kts | 0° |
| 2026-05-04 19:37 | 52.99114 | 10.08573 | 23600 ft | 397 kts | 1° |
| 2026-05-04 19:37 | 53.01864 | 10.08926 | 22549 ft | 395 kts | 1° |
| 2026-05-04 19:38 | 53.04594 | 10.09281 | 21668 ft | 389 kts | 1° |
| 2026-05-04 19:38 | 53.07267 | 10.09631 | 20851 ft | 382 kts | 1° |
| 2026-05-04 19:38 | 53.09895 | 10.09977 | 20071 ft | 376 kts | 1° |
| 2026-05-04 19:38 | 53.12480 | 10.10317 | 19315 ft | 369 kts | 1° |
| 2026-05-04 19:39 | 53.15020 | 10.10647 | 18577 ft | 363 kts | 1° |
| 2026-05-04 19:39 | 53.17511 | 10.10970 | 17798 ft | 357 kts | 1° |
| 2026-05-04 19:39 | 53.19977 | 10.11287 | 16958 ft | 352 kts | 1° |
| 2026-05-04 19:39 | 53.22408 | 10.11598 | 16135 ft | 348 kts | 1° |
| 2026-05-04 19:40 | 53.24724 | 10.11785 | 15722 ft | 333 kts | 356° |
| 2026-05-04 19:40 | 53.27044 | 10.11653 | 15245 ft | 321 kts | 354° |
| 2026-05-04 19:40 | 53.29262 | 10.11477 | 14662 ft | 317 kts | 354° |
| 2026-05-04 19:40 | 53.31428 | 10.11293 | 14070 ft | 314 kts | 354° |
| 2026-05-04 19:41 | 53.33553 | 10.11122 | 13449 ft | 311 kts | 354° |
| 2026-05-04 19:41 | 53.35724 | 10.10956 | 12777 ft | 308 kts | 354° |
| 2026-05-04 19:41 | 53.37855 | 10.10794 | 12122 ft | 305 kts | 354° |
| 2026-05-04 19:41 | 53.39965 | 10.10633 | 11476 ft | 302 kts | 354° |
| 2026-05-04 19:42 | 53.42057 | 10.10472 | 10838 ft | 299 kts | 354° |
| 2026-05-04 19:42 | 53.44133 | 10.10309 | 10240 ft | 297 kts | 354° |
| 2026-05-04 19:42 | 53.46176 | 10.10147 | 9629 ft | 293 kts | 354° |
| 2026-05-04 19:42 | 53.48204 | 10.09981 | 8961 ft | 290 kts | 354° |
| 2026-05-04 19:43 | 53.50204 | 10.09810 | 8290 ft | 286 kts | 354° |
| 2026-05-04 19:43 | 53.52182 | 10.09631 | 7654 ft | 283 kts | 354° |
| 2026-05-04 19:43 | 53.54145 | 10.09452 | 7011 ft | 280 kts | 356° |
| 2026-05-04 19:43 | 53.56048 | 10.09963 | 6376 ft | 279 kts | 22° |
| 2026-05-04 19:44 | 53.57603 | 10.11857 | 5702 ft | 278 kts | 48° |
| 2026-05-04 19:44 | 53.58781 | 10.14445 | 5138 ft | 278 kts | 54° |
| 2026-05-04 19:44 | 53.59899 | 10.17117 | 5008 ft | 281 kts | 54° |
| 2026-05-04 19:44 | 53.61014 | 10.19808 | 5006 ft | 282 kts | 54° |
| 2026-05-04 19:45 | 53.62128 | 10.22498 | 5001 ft | 276 kts | 54° |
| 2026-05-04 19:45 | 53.63183 | 10.25047 | 5000 ft | 258 kts | 54° |
| 2026-05-04 19:45 | 53.64190 | 10.27480 | 4999 ft | 251 kts | 54° |
| 2026-05-04 19:45 | 53.65183 | 10.29889 | 4946 ft | 249 kts | 54° |
| 2026-05-04 19:46 | 53.66167 | 10.32272 | 4778 ft | 249 kts | 54° |
| 2026-05-04 19:46 | 53.66832 | 10.33883 | 4619 ft | 248 kts | 54° |
| 2026-05-04 19:46 | 53.67813 | 10.36263 | 4387 ft | 247 kts | 54° |
| 2026-05-04 19:46 | 53.68764 | 10.38579 | 4157 ft | 246 kts | 54° |
| 2026-05-04 19:47 | 53.69814 | 10.40822 | 3930 ft | 242 kts | 38° |
| 2026-05-04 19:47 | 53.71818 | 10.42064 | 3620 ft | 232 kts | 354° |
| 2026-05-04 19:47 | 53.72859 | 10.41679 | 3481 ft | 227 kts | 333° |
| 2026-05-04 19:47 | 53.74669 | 10.39947 | 3182 ft | 226 kts | 325° |
| 2026-05-04 19:48 | 53.75557 | 10.38983 | 3056 ft | 225 kts | 324° |
| 2026-05-04 19:48 | 53.76866 | 10.37535 | 2975 ft | 224 kts | 324° |
| 2026-05-04 19:48 | 53.77982 | 10.35768 | 2976 ft | 221 kts | 302° |
| 2026-05-04 19:48 | 53.78532 | 10.33409 | 2976 ft | 220 kts | 277° |
| 2026-05-04 19:49 | 53.78416 | 10.30831 | 2988 ft | 220 kts | 252° |
| 2026-05-04 19:49 | 53.77667 | 10.28636 | 2999 ft | 222 kts | 231° |
| 2026-05-04 19:49 | 53.76678 | 10.26625 | 2998 ft | 222 kts | 231° |
| 2026-05-04 19:49 | 53.75699 | 10.24623 | 2998 ft | 223 kts | 232° |
| 2026-05-04 19:50 | 53.74715 | 10.22610 | 2999 ft | 222 kts | 231° |
| 2026-05-04 19:50 | 53.73731 | 10.20597 | 3003 ft | 222 kts | 231° |
| 2026-05-04 19:50 | 53.72752 | 10.18597 | 2851 ft | 218 kts | 231° |
| 2026-05-04 19:50 | 53.71790 | 10.16632 | 2585 ft | 216 kts | 231° |
| 2026-05-04 19:51 | 53.70837 | 10.14687 | 2314 ft | 215 kts | 232° |
| 2026-05-04 19:51 | 53.69888 | 10.12753 | 2028 ft | 215 kts | 232° |
| 2026-05-04 19:51 | 53.68937 | 10.10815 | 1743 ft | 215 kts | 232° |
| 2026-05-04 19:51 | 53.68017 | 10.08942 | 1449 ft | 208 kts | 231° |
| 2026-05-04 19:52 | 53.67138 | 10.07157 | 1191 ft | 188 kts | 232° |
| 2026-05-04 19:52 | 53.66345 | 10.05546 | 968 ft | 169 kts | 232° |
| 2026-05-04 19:52 | 53.65634 | 10.04101 | 727 ft | 151 kts | 232° |
| 2026-05-04 19:52 | 53.65000 | 10.02814 | 525 ft | 141 kts | 233° |
| 2026-05-04 19:53 | 53.64390 | 10.01566 | 337 ft | 137 kts | 232° |
| 2026-05-04 19:53 | 53.63808 | 10.00395 | 161 ft | 135 kts | 233° |
| 2026-05-04 19:53 | 53.63211 | 9.99194 | 53 ft | 125 kts | 231° |
| 2026-05-04 19:53 | 53.62743 | 9.98210 | 43 ft | 87 kts | 229° |
| 2026-05-04 19:54 | 53.62462 | 9.97656 | 40 ft | 37 kts | 228° |
| 2026-05-04 19:54 | 53.62349 | 9.97437 | 40 ft | 23 kts | 230° |
| 2026-05-04 19:54 | 53.62217 | 9.97401 | 41 ft | 4 kts | 136° |
| 2026-05-04 19:54 | 53.62216 | 9.97402 | 41 ft | 0 kts | 136° |
| 2026-05-04 19:55 | 53.62213 | 9.97407 | 42 ft | 5 kts | 136° |
| 2026-05-04 19:55 | 53.62182 | 9.97575 | 47 ft | 18 kts | 73° |
| 2026-05-04 19:55 | 53.62260 | 9.97745 | 47 ft | 20 kts | 50° |
| 2026-05-04 19:55 | 53.62357 | 9.97939 | 47 ft | 23 kts | 51° |
| 2026-05-04 19:56 | 53.62446 | 9.98148 | 47 ft | 20 kts | 64° |
| 2026-05-04 19:56 | 53.62484 | 9.98405 | 47 ft | 26 kts | 79° |
| 2026-05-04 19:56 | 53.62531 | 9.98577 | 47 ft | 10 kts | 16° |
| 2026-05-04 19:56 | 53.62605 | 9.98540 | 47 ft | 14 kts | 335° |
| 2026-05-04 19:57 | 53.62703 | 9.98579 | 47 ft | 19 kts | 70° |
| 2026-05-04 19:57 | 53.62772 | 9.98722 | 47 ft | 17 kts | 47° |
| 2026-05-04 19:57 | 53.62883 | 9.98940 | 47 ft | 28 kts | 50° |
| 2026-05-04 19:57 | 53.62994 | 9.99164 | 47 ft | 15 kts | 51° |
| 2026-05-04 19:58 | 53.63061 | 9.99307 | 47 ft | 16 kts | 52° |
| 2026-05-04 19:58 | 53.63078 | 9.99347 | 47 ft | 0 kts | 56° |
| 2026-05-04 19:59 | 53.63081 | 9.99354 | 47 ft | 5 kts | 56° |
| 2026-05-04 19:59 | 53.63116 | 9.99444 | 46 ft | 14 kts | 56° |
| 2026-05-04 19:59 | 53.63193 | 9.99617 | 47 ft | 20 kts | 49° |
| 2026-05-04 20:00 | 53.63292 | 9.99791 | 47 ft | 22 kts | 47° |
| 2026-05-04 20:00 | 53.63396 | 9.99998 | 48 ft | 24 kts | 51° |
| 2026-05-04 20:00 | 53.63393 | 10.00193 | 48 ft | 11 kts | 141° |
| 2026-05-04 20:00 | 53.63327 | 10.00201 | 48 ft | 14 kts | 179° |
| 2026-05-04 20:01 | 53.63288 | 10.00259 | 48 ft | 6 kts | 80° |
| 2026-05-04 20:01 | 53.63291 | 10.00347 | 48 ft | 1 kts | 88° |
| 2026-05-04 20:01 | 53.63292 | 10.00356 | 48 ft | 1 kts | 86° |
| 2026-05-04 20:01 | 53.63292 | 10.00363 | 48 ft | 0 kts | 86° |
| 2026-05-04 20:02 | 53.63292 | 10.00362 | 48 ft | 0 kts | 86° |